Time;durP1;ratioP1;P1;durP2;ratioP2;P2;SDS_P1;SDS_P2;PMS_P1;PMS_P2;Temp;Humidity;BMP_temperature;BMP_pressure;BME280_temperature;BME280_humidity;BME280_pressure;Samples;Min_cycle;Max_cycle;Signal;HPM_P1;HPM_P2
2022/09/13 00:01:17;;;;;;;10.47;8.23;;;;;;;18.07;61.73;97642.28;8316517;28;20233;-76
2022/09/13 00:05:20;;;;;;;8.50;7.67;;;;;;;18.03;61.48;97635.59;8316104;28;20428;-77
2022/09/13 00:09:23;;;;;;;9.13;8.23;;;;;;;18.07;61.82;97642.28;8316152;28;20233;-77
2022/09/13 00:13:27;;;;;;;10.47;8.00;;;;;;;17.95;61.60;97633.59;8316244;28;20504;-77
2022/09/13 00:17:30;;;;;;;9.87;8.20;;;;;;;17.88;61.95;97627.22;8317731;28;20241;-77
2022/09/13 00:21:33;;;;;;;9.17;8.27;;;;;;;18.01;61.41;97621.81;8315773;28;20253;-77
2022/09/13 00:25:35;;;;;;;9.23;8.30;;;;;;;17.95;61.27;97620.50;8315908;28;20452;-77
2022/09/13 00:29:39;;;;;;;9.33;8.43;;;;;;;17.96;61.38;97616.94;8315937;28;20240;-77
2022/09/13 00:33:42;;;;;;;8.97;8.07;;;;;;;17.92;61.37;97618.16;8315657;28;20237;-77
2022/09/13 00:37:45;;;;;;;9.00;8.10;;;;;;;17.96;61.38;97604.66;8315694;28;20287;-76
2022/09/13 00:41:47;;;;;;;10.17;8.10;;;;;;;17.85;61.71;97598.63;8315222;28;20244;-76
2022/09/13 00:45:52;;;;;;;9.83;8.30;;;;;;;17.85;61.84;97604.69;8315322;28;20233;-76
2022/09/13 00:49:58;;;;;;;8.87;8.07;;;;;;;17.78;61.53;97613.94;8315423;28;20225;-76
2022/09/13 00:54:01;;;;;;;9.50;8.57;;;;;;;17.73;61.92;97598.63;8315127;28;20236;-76
2022/09/13 00:58:07;;;;;;;10.77;7.90;;;;;;;17.76;61.78;97600.16;8314903;28;20240;-77
2022/09/13 01:02:11;;;;;;;9.03;8.13;;;;;;;17.81;61.87;97608.47;8314886;28;20528;-77
2022/09/13 01:06:16;;;;;;;9.27;8.20;;;;;;;17.71;61.76;97602.31;8314625;28;20284;-76
2022/09/13 01:10:19;;;;;;;10.43;8.23;;;;;;;17.65;61.72;97606.25;8314863;28;20236;-77
2022/09/13 01:14:22;;;;;;;8.83;7.87;;;;;;;17.62;61.87;97601.25;8314721;28;20278;-77
2022/09/13 01:18:27;;;;;;;9.90;8.90;;;;;;;17.61;61.70;97602.22;8314264;28;20301;-77
2022/09/13 01:22:45;;;;;;;8.30;7.53;;;;;;;17.55;61.98;97597.44;8314601;28;20239;-77
2022/09/13 01:27:15;;;;;;;8.97;8.07;;;;;;;17.53;61.96;97589.72;8314238;28;20245;-76
2022/09/13 01:31:24;;;;;;;13.33;8.93;;;;;;;17.45;62.17;97579.00;8314693;28;20527;-77
2022/09/13 01:35:38;;;;;;;9.63;8.37;;;;;;;17.58;61.55;97584.13;8314492;28;20272;-76
2022/09/13 01:39:57;;;;;;;10.07;8.23;;;;;;;17.51;62.00;97581.16;8314497;28;20254;-77
2022/09/13 01:44:07;;;;;;;9.50;7.83;;;;;;;17.58;61.57;97590.19;8314075;28;20288;-77
2022/09/13 01:48:16;;;;;;;9.33;8.30;;;;;;;17.45;61.60;97586.88;8314416;28;20412;-77
2022/09/13 01:52:24;;;;;;;11.30;8.43;;;;;;;17.46;61.70;97593.78;8314479;28;20231;-77
2022/09/13 01:56:29;;;;;;;10.40;8.87;;;;;;;17.38;62.11;97599.63;8314247;28;20232;-76
2022/09/13 02:00:36;;;;;;;9.73;8.83;;;;;;;17.44;61.98;97593.06;8314248;28;20256;-77
2022/09/13 02:04:42;;;;;;;9.90;8.90;;;;;;;17.17;62.25;97586.41;8313773;28;20245;-77
2022/09/13 02:08:47;;;;;;;12.60;8.87;;;;;;;17.25;62.03;97580.59;8314103;28;20237;-77
2022/09/13 02:12:51;;;;;;;10.40;9.40;;;;;;;17.27;61.91;97562.97;8313649;28;20291;-77
2022/09/13 02:16:57;;;;;;;9.93;9.00;;;;;;;17.02;62.72;97571.06;8314212;28;20396;-77
2022/09/13 02:21:07;;;;;;;9.60;8.60;;;;;;;17.17;62.36;97568.09;8313933;28;20236;-77
2022/09/13 02:25:13;;;;;;;12.53;9.00;;;;;;;17.23;62.05;97561.56;8313771;28;20451;-77
2022/09/13 02:29:19;;;;;;;9.13;8.23;;;;;;;17.24;62.19;97557.97;8314432;28;20279;-76
2022/09/13 02:33:24;;;;;;;9.63;8.63;;;;;;;17.19;62.04;97541.78;8319719;28;20480;-77
2022/09/13 02:37:30;;;;;;;10.13;8.93;;;;;;;17.17;61.85;97530.63;8319414;28;20248;-77
2022/09/13 02:41:36;;;;;;;10.73;8.83;;;;;;;17.05;62.00;97537.66;8318963;28;20229;-76
2022/09/13 02:45:44;;;;;;;11.77;8.67;;;;;;;17.10;61.41;97529.47;8318797;28;20427;-77
2022/09/13 02:49:55;;;;;;;10.00;8.43;;;;;;;17.12;61.81;97540.63;8318283;28;20496;-75
2022/09/13 02:54:07;;;;;;;8.87;7.97;;;;;;;17.13;60.87;97522.19;8318391;28;20232;-77
2022/09/13 02:58:12;;;;;;;10.17;8.57;;;;;;;17.07;61.37;97529.69;8318346;28;20241;-76
2022/09/13 03:02:17;;;;;;;9.80;8.70;;;;;;;16.70;62.68;97524.66;8318304;28;20237;-77
2022/09/13 03:06:23;;;;;;;11.40;9.00;;;;;;;16.81;61.97;97528.09;8317736;28;20261;-77
2022/09/13 03:10:30;;;;;;;10.60;8.50;;;;;;;16.73;62.73;97533.06;8318026;28;20236;-76
2022/09/13 03:14:41;;;;;;;8.97;8.00;;;;;;;16.85;61.84;97536.59;8317921;28;20291;-77
2022/09/13 03:18:51;;;;;;;9.17;8.30;;;;;;;16.84;61.55;97531.47;8317612;28;20236;-76
2022/09/13 03:23:08;;;;;;;12.77;8.70;;;;;;;16.82;61.58;97536.81;8317168;28;20229;-76
2022/09/13 03:27:19;;;;;;;8.97;7.83;;;;;;;16.89;61.54;97531.94;8317520;28;20332;-77
2022/09/13 03:31:29;;;;;;;12.07;9.03;;;;;;;16.88;61.43;97525.03;8317534;28;20243;-77
2022/09/13 03:35:37;;;;;;;10.47;8.90;;;;;;;16.97;61.21;97516.50;8316986;28;20240;-76
2022/09/13 03:39:42;;;;;;;9.47;8.57;;;;;;;16.84;61.63;97528.84;8316864;28;20300;-76
2022/09/13 03:43:50;;;;;;;9.07;8.17;;;;;;;16.84;61.80;97537.53;8316782;28;20239;-76
2022/09/13 03:47:53;;;;;;;9.63;8.73;;;;;;;16.83;61.30;97527.16;8316434;28;20229;-76
2022/09/13 03:51:57;;;;;;;9.80;8.60;;;;;;;16.78;61.81;97512.63;8316604;28;20240;-76
2022/09/13 03:55:59;;;;;;;11.17;9.17;;;;;;;16.63;61.93;97505.16;8316397;28;20229;-76
2022/09/13 04:00:05;;;;;;;10.27;9.27;;;;;;;16.65;61.45;97511.91;8316288;28;20240;-76
2022/09/13 04:04:07;;;;;;;9.63;8.63;;;;;;;16.68;61.59;97516.06;8316259;28;20303;-76
2022/09/13 04:08:10;;;;;;;9.23;8.17;;;;;;;16.72;61.63;97509.69;8316031;28;20425;-77
2022/09/13 04:12:14;;;;;;;10.93;9.20;;;;;;;16.60;61.61;97516.66;8315871;28;20239;-76
2022/09/13 04:16:18;;;;;;;10.10;9.03;;;;;;;16.67;61.79;97522.25;8315726;28;20328;-76
2022/09/13 04:20:21;;;;;;;9.70;8.80;;;;;;;16.68;61.63;97530.00;8315724;28;20229;-76
2022/09/13 04:24:26;;;;;;;12.43;8.67;;;;;;;16.65;61.32;97506.69;8315801;28;20233;-76
2022/09/13 04:28:29;;;;;;;10.77;8.87;;;;;;;16.65;61.64;97518.94;8315788;28;20248;-76
2022/09/13 04:32:33;;;;;;;10.50;8.83;;;;;;;16.68;61.40;97547.44;8315166;28;20237;-77
2022/09/13 04:36:36;;;;;;;10.27;9.23;;;;;;;16.56;61.84;97546.59;8315296;28;20245;-77
2022/09/13 04:40:39;;;;;;;9.50;8.60;;;;;;;16.58;62.09;97545.53;8315513;28;20233;-76
2022/09/13 04:44:43;;;;;;;10.43;8.73;;;;;;;16.60;61.99;97537.56;8315340;28;20233;-77
2022/09/13 04:48:49;;;;;;;10.03;8.30;;;;;;;16.60;61.72;97541.03;8315091;28;20279;-76
2022/09/13 04:52:55;;;;;;;10.10;9.00;;;;;;;16.48;61.96;97528.03;8313943;28;20252;-76
2022/09/13 04:56:57;;;;;;;10.20;9.20;;;;;;;16.50;62.35;97536.59;8315081;28;20373;-76
2022/09/13 05:01:01;;;;;;;10.30;9.13;;;;;;;16.60;62.09;97542.78;8314865;28;20232;-77
2022/09/13 05:05:07;;;;;;;10.00;8.63;;;;;;;16.57;61.55;97525.56;8314360;28;20237;-78
2022/09/13 05:09:12;;;;;;;11.03;9.87;;;;;;;16.50;61.85;97526.16;8314782;28;20398;-78
2022/09/13 05:13:15;;;;;;;10.30;9.30;;;;;;;16.56;62.44;97528.28;8314506;28;20237;-78
2022/09/13 05:17:18;;;;;;;10.57;9.57;;;;;;;16.54;62.27;97532.81;8314527;28;20236;-78
2022/09/13 05:21:22;;;;;;;10.47;9.47;;;;;;;16.72;61.47;97535.81;8314380;28;20240;-83
2022/09/13 05:25:25;;;;;;;9.90;8.67;;;;;;;16.72;61.60;97525.38;8314499;28;20233;-78
2022/09/13 05:29:28;;;;;;;10.63;9.00;;;;;;;16.82;61.34;97531.56;8314423;28;20241;-76
2022/09/13 05:33:33;;;;;;;9.97;9.07;;;;;;;16.80;61.45;97523.81;8314280;28;20245;-77
2022/09/13 05:37:37;;;;;;;12.90;9.13;;;;;;;16.74;61.75;97518.22;8314172;28;20232;-79
2022/09/13 05:41:40;;;;;;;10.67;9.57;;;;;;;16.29;63.73;97518.16;8314287;28;20302;-78
2022/09/13 05:45:42;;;;;;;15.13;9.27;;;;;;;16.76;62.40;97522.38;8314203;28;20239;-78
2022/09/13 05:49:45;;;;;;;12.10;8.93;;;;;;;17.32;60.70;97523.34;8314243;28;20236;-78
2022/09/13 05:54:11;;;;;;;9.27;8.37;;;;;;;17.55;59.91;97532.00;8313819;28;20350;-78
2022/09/13 05:58:14;;;;;;;9.13;8.30;;;;;;;17.57;60.24;97537.94;8314069;28;20237;-78
2022/09/13 06:02:17;;;;;;;15.97;8.23;;;;;;;17.44;60.86;97540.72;8313982;28;20557;-78
2022/09/13 06:06:20;;;;;;;15.30;9.07;;;;;;;16.97;61.97;97546.09;8319055;28;20244;-78
2022/09/13 06:10:24;;;;;;;11.47;8.90;;;;;;;17.12;61.66;97535.41;8320127;28;20271;-78
2022/09/13 06:14:27;;;;;;;15.17;8.97;;;;;;;17.05;62.16;97549.91;8320063;28;20237;-78
2022/09/13 06:18:30;;;;;;;12.93;9.30;;;;;;;17.15;62.04;97553.47;8319823;28;20225;-78
2022/09/13 06:22:34;;;;;;;13.33;9.03;;;;;;;17.14;62.23;97552.63;8319745;28;20237;-78
2022/09/13 06:26:38;;;;;;;13.30;9.23;;;;;;;17.08;62.69;97545.28;8319529;28;20241;-77
2022/09/13 06:30:40;;;;;;;10.20;9.07;;;;;;;17.37;61.61;97548.22;8319689;28;20233;-78
2022/09/13 06:34:43;;;;;;;12.33;9.27;;;;;;;17.25;61.79;97543.97;8319493;28;20233;-78
2022/09/13 06:38:47;;;;;;;15.70;8.80;;;;;;;17.46;61.75;97537.97;8319183;28;20233;-78
2022/09/13 06:42:52;;;;;;;11.70;9.60;;;;;;;17.37;62.34;97531.69;8318813;28;20425;-78
2022/09/13 06:46:54;;;;;;;9.57;8.57;;;;;;;17.38;62.72;97538.56;8318965;28;20240;-78
2022/09/13 06:50:58;;;;;;;10.60;9.13;;;;;;;17.58;61.94;97529.16;8318858;28;20233;-79
2022/09/13 06:55:01;;;;;;;12.80;9.97;;;;;;;17.13;63.04;97531.81;8318686;28;20405;-78
2022/09/13 06:59:08;;;;;;;14.47;10.53;;;;;;;17.37;63.06;97534.31;8318681;28;20233;-78
2022/09/13 07:03:10;;;;;;;10.40;8.93;;;;;;;17.72;62.05;97535.88;8318592;28;20237;-78
2022/09/13 07:07:13;;;;;;;11.50;9.70;;;;;;;17.93;61.76;97533.34;8317998;28;20672;-79
2022/09/13 07:11:18;;;;;;;12.77;9.70;;;;;;;17.97;61.80;97538.25;8318306;28;20523;-77
2022/09/13 07:15:21;;;;;;;11.30;9.70;;;;;;;17.89;62.04;97532.75;8317351;28;20458;-78
2022/09/13 07:19:26;;;;;;;11.37;9.27;;;;;;;18.34;60.95;97532.59;8317911;28;20248;-77
2022/09/13 07:23:29;;;;;;;11.60;8.50;;;;;;;18.51;60.74;97535.59;8318070;28;20256;-78
2022/09/13 07:27:32;;;;;;;10.17;8.37;;;;;;;18.64;60.06;97544.09;8317757;28;20233;-78
2022/09/13 07:31:37;;;;;;;11.37;8.33;;;;;;;18.79;59.79;97541.13;8317729;28;20543;-78
2022/09/13 07:35:40;;;;;;;9.43;8.30;;;;;;;19.01;59.55;97545.44;8317707;28;20311;-78
2022/09/13 07:39:43;;;;;;;9.80;8.43;;;;;;;19.05;59.41;97545.03;8317476;28;20236;-78
2022/09/13 07:43:46;;;;;;;10.80;7.97;;;;;;;19.30;59.24;97545.53;8317274;28;20233;-77
2022/09/13 07:47:52;;;;;;;11.50;8.43;;;;;;;18.88;59.46;97551.69;8316805;28;20235;-78
2022/09/13 07:51:55;;;;;;;10.80;8.53;;;;;;;18.98;59.23;97541.25;8317103;28;20230;-78
2022/09/13 07:56:02;;;;;;;9.87;8.07;;;;;;;19.05;59.18;97536.31;8317071;28;20451;-80
2022/09/13 08:00:07;;;;;;;8.63;7.73;;;;;;;19.23;59.01;97540.00;8316883;28;20230;-78
2022/09/13 08:04:12;;;;;;;9.13;7.90;;;;;;;19.03;59.88;97546.94;8316700;28;20238;-79
2022/09/13 08:08:15;;;;;;;9.97;8.20;;;;;;;19.30;58.48;97550.78;8316463;28;20241;-78
2022/09/13 08:12:18;;;;;;;10.53;8.57;;;;;;;19.24;59.56;97541.63;8316471;28;20231;-79
2022/09/13 08:16:22;;;;;;;13.63;8.17;;;;;;;19.52;59.79;97545.31;8316421;28;20249;-84
2022/09/13 08:20:26;;;;;;;19.43;7.37;;;;;;;19.80;58.28;97549.97;8316609;28;20400;-81
2022/09/13 08:24:29;;;;;;;11.67;7.13;;;;;;;20.09;58.23;97558.72;8316278;28;20528;-83
2022/09/13 08:28:32;;;;;;;9.03;8.07;;;;;;;20.23;56.11;97565.34;8316299;28;20240;-83
2022/09/13 08:32:35;;;;;;;10.80;7.97;;;;;;;20.29;56.92;97570.03;8316051;28;20239;-83
2022/09/13 08:36:39;;;;;;;10.20;6.10;;;;;;;20.64;56.57;97573.13;8315788;28;20258;-85
2022/09/13 08:40:46;;;;;;;7.50;6.13;;;;;;;21.11;54.95;97570.47;8315801;28;20236;-84
2022/09/13 08:44:50;;;;;;;7.63;6.30;;;;;;;20.97;55.21;97563.06;8315188;28;20283;-83
2022/09/13 08:48:55;;;;;;;9.27;6.00;;;;;;;20.90;55.41;97562.78;8315204;28;20246;-84
2022/09/13 08:53:07;;;;;;;7.30;5.87;;;;;;;20.67;55.93;97554.41;8315452;28;20295;-83
2022/09/13 08:57:16;;;;;;;7.07;5.40;;;;;;;20.79;55.84;97560.31;8316210;28;20233;-86
2022/09/13 09:01:30;;;;;;;7.50;6.80;;;;;;;20.75;55.45;97551.88;8316398;28;20594;-86
2022/09/13 09:05:41;;;;;;;10.43;6.63;;;;;;;20.94;56.00;97551.00;8315429;28;20244;-84
2022/09/13 09:09:49;;;;;;;6.70;6.10;;;;;;;21.02;55.46;97560.84;8315381;28;20242;-85
2022/09/13 09:13:55;;;;;;;9.20;5.50;;;;;;;21.19;55.22;97567.13;8314990;28;20235;-85
2022/09/13 09:18:00;;;;;;;7.20;5.43;;;;;;;21.30;55.06;97564.31;8315489;28;20302;-85
2022/09/13 09:22:06;;;;;;;9.30;7.50;;;;;;;21.09;54.00;97565.38;8315388;28;20442;-82
2022/09/13 09:26:17;;;;;;;6.53;5.60;;;;;;;20.99;55.66;97559.31;8315308;28;20231;-87
2022/09/13 09:30:20;;;;;;;13.43;7.33;;;;;;;20.64;55.44;97567.84;8315477;28;20244;-87
2022/09/13 09:34:41;;;;;;;7.37;5.70;;;;;;;21.00;55.42;97560.13;8315711;28;20229;-86
2022/09/13 09:38:44;;;;;;;7.03;6.33;;;;;;;20.83;55.04;97569.63;8317008;28;20542;-86
2022/09/13 09:42:49;;;;;;;7.67;5.67;;;;;;;20.78;54.82;97563.94;8321701;28;20362;-80
2022/09/13 09:46:56;;;;;;;12.90;5.70;;;;;;;20.82;55.01;97562.69;8322018;28;20541;-85
2022/09/13 09:50:59;;;;;;;7.73;5.73;;;;;;;20.85;55.11;97550.06;8321199;28;20232;-84
2022/09/13 09:55:13;;;;;;;8.97;6.43;;;;;;;20.68;56.77;97543.75;8321195;28;20233;-86
2022/09/13 09:59:27;;;;;;;9.57;7.77;;;;;;;20.55;57.36;97532.66;8321480;28;20243;-86
2022/09/13 10:03:32;;;;;;;12.13;7.80;;;;;;;20.48;57.38;97524.50;8320857;28;20236;-85
2022/09/13 10:07:35;;;;;;;7.80;7.00;;;;;;;20.80;56.73;97494.41;8320476;28;20264;-86
2022/09/13 10:11:44;;;;;;;6.37;5.73;;;;;;;20.78;56.66;97495.53;8321212;28;20237;-86
2022/09/13 10:15:57;;;;;;;8.07;7.23;;;;;;;20.69;57.65;97482.28;8320347;28;20258;-83
2022/09/13 10:20:02;;;;;;;9.83;6.97;;;;;;;20.73;56.92;97488.06;8321110;28;20234;-86
2022/09/13 10:24:17;;;;;;;8.30;6.90;;;;;;;21.02;56.70;97487.13;8322034;28;20262;-86
2022/09/13 10:28:19;;;;;;;6.63;6.03;;;;;;;21.46;55.48;97495.25;8330443;28;20232;-85
2022/09/13 10:32:24;;;;;;;8.80;7.17;;;;;;;21.55;54.96;97497.00;8335409;28;20247;-85
2022/09/13 10:36:30;;;;;;;8.90;7.00;;;;;;;21.47;54.43;97492.44;8324437;28;20248;-86
2022/09/13 10:40:54;;;;;;;9.83;6.30;;;;;;;21.76;53.55;97493.22;8322579;28;20252;-87
2022/09/13 10:44:58;;;;;;;6.47;5.80;;;;;;;22.09;52.69;97496.19;8322171;28;20295;-85
2022/09/13 10:49:02;;;;;;;6.83;5.30;;;;;;;22.27;53.11;97497.00;8320522;28;20235;-85
2022/09/13 10:53:29;;;;;;;12.63;6.30;;;;;;;22.52;52.04;97495.34;8320996;28;20232;-86
2022/09/13 10:57:34;;;;;;;6.00;5.10;;;;;;;23.09;50.54;97494.88;8324613;28;20240;-88
2022/09/13 11:01:43;;;;;;;6.60;4.40;;;;;;;23.20;49.91;97506.97;8320709;28;20418;-86
2022/09/13 11:05:49;;;;;;;8.47;4.90;;;;;;;22.51;50.77;97500.81;8323645;28;20237;-86
2022/09/13 11:09:56;;;;;;;5.77;4.53;;;;;;;22.61;50.38;97497.06;8325909;28;20553;-87
2022/09/13 11:14:07;;;;;;;7.90;5.20;;;;;;;22.68;50.91;97491.19;8324160;28;20240;-87
2022/09/13 11:18:34;;;;;;;4.30;3.90;;;;;;;22.82;51.38;97480.03;8319559;28;20225;-86
2022/09/13 11:22:57;;;;;;;6.53;3.77;;;;;;;22.76;50.27;97483.31;8318857;28;20244;-87
2022/09/13 11:27:06;;;;;;;6.13;4.17;;;;;;;22.79;50.11;97483.84;8319315;28;20343;-86
2022/09/13 11:31:21;;;;;;;8.10;4.17;;;;;;;22.80;51.15;97490.75;8318192;28;20275;-87
2022/09/13 11:35:36;;;;;;;10.63;4.43;;;;;;;22.58;51.50;97486.84;8317927;28;20239;-85
2022/09/13 11:39:47;;;;;;;5.20;3.40;;;;;;;22.52;51.45;97500.63;8318187;28;20247;-86
2022/09/13 11:44:03;;;;;;;5.90;3.53;;;;;;;22.37;51.42;97499.53;8316407;28;20562;-82
2022/09/13 11:48:20;;;;;;;7.73;3.80;;;;;;;22.07;52.16;97491.06;8317818;28;20259;-90
2022/09/13 11:52:32;;;;;;;3.93;3.40;;;;;;;21.77;53.43;97497.53;8317180;28;20287;-83
2022/09/13 11:56:38;;;;;;;6.93;3.60;;;;;;;21.90;53.82;97495.34;8317191;28;20248;-82
2022/09/13 12:00:52;;;;;;;5.00;3.47;;;;;;;21.99;53.67;97499.72;8316485;28;20516;-81
2022/09/13 12:04:58;;;;;;;6.77;3.67;;;;;;;21.75;54.57;97508.22;8315755;28;20237;-81
2022/09/13 12:09:25;;;;;;;6.80;3.97;;;;;;;21.68;55.53;97496.63;8316407;28;20344;-83
2022/09/13 12:13:31;;;;;;;3.93;3.50;;;;;;;21.63;56.09;97491.81;8316233;28;20248;-82
2022/09/13 12:17:38;;;;;;;7.13;4.60;;;;;;;21.56;57.32;97482.84;8316210;28;20275;-83
2022/09/13 12:21:43;;;;;;;5.67;4.20;;;;;;;21.58;58.01;97488.78;8316443;28;20408;-85
2022/09/13 12:25:49;;;;;;;13.13;4.90;;;;;;;21.66;57.90;97474.84;8316578;28;20236;-80
2022/09/13 12:29:55;;;;;;;6.77;4.27;;;;;;;21.67;57.75;97472.09;8315716;28;20237;-81
2022/09/13 12:33:59;;;;;;;7.80;4.27;;;;;;;21.77;57.20;97452.75;8315539;28;20301;-81
2022/09/13 12:38:16;;;;;;;6.63;3.73;;;;;;;21.93;56.54;97452.84;8315821;28;20243;-81
2022/09/13 12:42:51;;;;;;;7.43;3.90;;;;;;;22.02;55.98;97461.69;8315454;28;20240;-81
2022/09/13 12:47:03;;;;;;;5.77;3.50;;;;;;;22.09;56.25;97457.44;8314956;28;20228;-82
2022/09/13 12:51:15;;;;;;;6.40;3.87;;;;;;;22.00;55.71;97459.19;8315283;28;20237;-85
2022/09/13 12:55:48;;;;;;;7.83;3.80;;;;;;;21.86;56.16;97457.94;8316473;28;20236;-91
2022/09/13 13:00:08;;;;;;;4.13;3.30;;;;;;;21.84;56.66;97457.25;8315484;28;20467;-87
2022/09/13 13:04:16;;;;;;;4.00;3.20;;;;;;;22.02;56.50;97457.22;8315664;28;20459;-85
2022/09/13 13:08:28;;;;;;;5.50;3.27;;;;;;;21.81;57.03;97449.63;8315406;28;20241;-87
2022/09/13 13:12:33;;;;;;;3.50;3.20;;;;;;;21.92;56.60;97443.31;8314971;28;20233;-87
2022/09/13 13:16:37;;;;;;;5.90;3.40;;;;;;;21.98;57.08;97434.78;8314952;28;20243;-86
2022/09/13 13:21:18;;;;;;;7.50;3.57;;;;;;;22.05;56.83;97448.19;8315181;28;20232;-87
2022/09/13 13:25:34;;;;;;;7.00;3.67;;;;;;;22.20;56.45;97444.03;8315196;28;20408;-86
2022/09/13 13:29:37;;;;;;;5.53;3.37;;;;;;;22.25;56.00;97448.84;8315036;28;20243;-86
2022/09/13 13:33:47;;;;;;;5.70;3.60;;;;;;;22.30;55.41;97443.13;8314963;28;20229;-87
2022/09/13 13:37:51;;;;;;;3.70;3.40;;;;;;;22.51;55.52;97437.50;8314558;28;20229;-86
2022/09/13 13:41:55;;;;;;;4.17;3.43;;;;;;;22.44;55.86;97430.19;8314483;28;20279;-80
2022/09/13 13:46:27;;;;;;;4.87;2.80;;;;;;;22.44;54.31;97426.72;8314537;28;20239;-80
2022/09/13 13:50:30;;;;;;;3.53;2.80;;;;;;;22.45;55.94;97423.94;8314279;28;20243;-80
2022/09/13 13:55:03;;;;;;;8.40;3.30;;;;;;;22.33;54.50;97414.66;8314176;28;20236;-80
2022/09/13 13:59:09;;;;;;;5.43;3.20;;;;;;;22.45;55.91;97423.94;8314195;28;20426;-79
2022/09/13 14:03:18;;;;;;;4.77;3.20;;;;;;;22.43;55.74;97438.28;8314082;28;20239;-80
2022/09/13 14:07:35;;;;;;;5.07;3.10;;;;;;;22.51;56.01;97419.03;8313984;28;20415;-80
2022/09/13 14:11:50;;;;;;;4.20;3.67;;;;;;;22.54;55.86;97405.50;8314049;28;20237;-79
2022/09/13 14:15:59;;;;;;;3.87;3.43;;;;;;;22.65;54.00;97394.69;8313689;28;20236;-79
2022/09/13 14:20:04;;;;;;;4.30;3.50;;;;;;;22.72;53.72;97394.88;8313918;28;20237;-80
2022/09/13 14:24:11;;;;;;;4.77;3.30;;;;;;;22.76;53.87;97383.84;8314079;28;20248;-79
2022/09/13 14:28:18;;;;;;;3.73;3.30;;;;;;;22.79;52.78;97387.97;8319420;28;20243;-79
2022/09/13 14:32:23;;;;;;;3.60;3.20;;;;;;;22.64;52.38;97391.22;8319678;28;20243;-80
2022/09/13 14:36:26;;;;;;;3.40;2.70;;;;;;;22.70;53.98;97391.56;8319679;28;20241;-81
2022/09/13 14:40:29;;;;;;;5.93;2.83;;;;;;;22.71;53.92;97388.75;8319215;28;20239;-82
2022/09/13 14:44:33;;;;;;;4.10;2.63;;;;;;;22.76;53.09;97386.47;8319175;28;20236;-81
2022/09/13 14:48:40;;;;;;;5.77;2.90;;;;;;;22.53;52.57;97382.75;8319134;28;20241;-83
2022/09/13 14:52:48;;;;;;;3.10;2.53;;;;;;;22.72;52.73;97379.88;8318880;28;20252;-82
2022/09/13 14:56:53;;;;;;;4.40;2.80;;;;;;;22.82;52.19;97380.56;8319140;28;20233;-82
2022/09/13 15:00:58;;;;;;;19.40;3.30;;;;;;;22.81;52.29;97363.06;8318827;28;20233;-82
2022/09/13 15:05:07;;;;;;;3.77;2.57;;;;;;;22.91;51.78;97370.03;8318613;28;20499;-82
2022/09/13 15:09:17;;;;;;;3.53;2.67;;;;;;;22.88;52.33;97362.44;8318781;28;20248;-82
2022/09/13 15:13:20;;;;;;;3.97;2.30;;;;;;;22.82;52.31;97364.72;8318654;28;20241;-83
2022/09/13 15:17:24;;;;;;;2.50;2.10;;;;;;;22.80;52.76;97357.94;8318792;28;20229;-80
2022/09/13 15:21:27;;;;;;;2.73;2.23;;;;;;;22.74;53.24;97369.97;8318951;28;20233;-81
2022/09/13 15:25:30;;;;;;;5.17;2.60;;;;;;;22.77;53.21;97360.91;8318552;28;20236;-82
2022/09/13 15:29:36;;;;;;;2.37;2.17;;;;;;;22.70;53.40;97352.00;8318202;28;20244;-81
2022/09/13 15:33:40;;;;;;;6.00;2.30;;;;;;;22.66;53.65;97346.19;8318086;28;20236;-80
2022/09/13 15:37:58;;;;;;;4.60;2.40;;;;;;;22.57;53.80;97363.81;8316663;28;20463;-78
2022/09/13 15:42:01;;;;;;;3.23;2.50;;;;;;;22.52;54.03;97347.59;8317560;28;20237;-82
2022/09/13 15:46:05;;;;;;;3.43;2.70;;;;;;;22.50;54.20;97348.75;8317455;28;20241;-82
2022/09/13 15:50:19;;;;;;;3.30;3.00;;;;;;;22.44;54.99;97342.31;8317353;28;20228;-83
2022/09/13 15:54:22;;;;;;;4.37;2.90;;;;;;;22.46;55.17;97345.59;8317290;28;20236;-84
2022/09/13 15:58:25;;;;;;;4.53;2.97;;;;;;;22.46;55.13;97337.69;8317245;28;20524;-83
2022/09/13 16:02:31;;;;;;;4.30;3.40;;;;;;;22.31;55.43;97334.81;8316738;28;20463;-84
2022/09/13 16:06:35;;;;;;;6.00;3.47;;;;;;;22.41;55.17;97325.00;8316619;28;20535;-83
2022/09/13 16:10:38;;;;;;;3.53;3.13;;;;;;;22.31;55.78;97319.00;8316822;28;20240;-84
2022/09/13 16:14:41;;;;;;;4.23;3.03;;;;;;;22.32;55.92;97314.56;8316592;28;20237;-84
2022/09/13 16:18:44;;;;;;;4.20;2.90;;;;;;;22.35;55.43;97312.44;8316609;28;20236;-83
2022/09/13 16:22:48;;;;;;;5.07;3.13;;;;;;;22.30;55.95;97301.53;8315984;28;20239;-78
2022/09/13 16:26:51;;;;;;;3.73;2.73;;;;;;;22.31;56.12;97315.53;8316049;28;20236;-84
2022/09/13 16:30:54;;;;;;;4.60;2.83;;;;;;;22.20;56.46;97306.91;8315972;28;20316;-87
2022/09/13 16:34:57;;;;;;;5.90;3.10;;;;;;;22.21;56.85;97311.16;8316020;28;20236;-82
2022/09/13 16:39:02;;;;;;;3.73;3.07;;;;;;;22.22;56.83;97314.66;8316276;28;20232;-83
2022/09/13 16:43:04;;;;;;;5.67;3.20;;;;;;;22.16;57.00;97313.47;8315842;28;20241;-83
2022/09/13 16:47:07;;;;;;;6.27;4.07;;;;;;;22.05;57.64;97313.75;8316140;28;20247;-81
2022/09/13 16:51:12;;;;;;;6.77;3.97;;;;;;;22.05;57.99;97305.84;8315713;28;20236;-82
2022/09/13 16:55:16;;;;;;;5.10;3.50;;;;;;;22.02;59.20;97300.88;8316290;28;20236;-83
2022/09/13 16:59:19;;;;;;;6.13;3.97;;;;;;;21.87;60.00;97297.97;8315888;28;20263;-83
2022/09/13 17:03:21;;;;;;;4.73;3.67;;;;;;;21.92;59.76;97300.16;8315717;28;20550;-84
2022/09/13 17:07:24;;;;;;;6.57;4.50;;;;;;;21.83;60.86;97291.34;8315957;28;20244;-84
2022/09/13 17:11:30;;;;;;;7.47;4.17;;;;;;;21.85;61.04;97295.47;8315714;28;20233;-84
2022/09/13 17:15:38;;;;;;;5.50;4.10;;;;;;;21.88;60.89;97298.81;8315569;28;20251;-82
2022/09/13 17:19:41;;;;;;;8.87;4.67;;;;;;;21.85;61.08;97300.75;8315281;28;20236;-82
2022/09/13 17:23:45;;;;;;;8.67;6.30;;;;;;;21.81;61.63;97298.59;8315587;28;20224;-83
2022/09/13 17:27:49;;;;;;;7.70;5.80;;;;;;;21.78;61.63;97289.19;8315150;28;20229;-81
2022/09/13 17:31:52;;;;;;;8.17;5.03;;;;;;;21.73;62.19;97295.91;8315427;28;20235;-82
2022/09/13 17:35:58;;;;;;;6.70;4.93;;;;;;;21.74;62.32;97297.56;8315679;28;20532;-82
2022/09/13 17:40:01;;;;;;;6.97;5.53;;;;;;;21.68;62.06;97280.56;8314567;28;20432;-82
2022/09/13 17:44:06;;;;;;;5.97;4.90;;;;;;;21.69;62.49;97284.03;8315290;28;20247;-80
2022/09/13 17:48:08;;;;;;;7.13;5.33;;;;;;;21.62;62.86;97282.00;8315109;28;20232;-79
2022/09/13 17:52:11;;;;;;;6.23;4.80;;;;;;;21.63;61.95;97277.56;8315095;28;20431;-80
2022/09/13 17:56:17;;;;;;;7.67;5.00;;;;;;;21.64;62.48;97273.94;8315035;28;20236;-80
2022/09/13 18:00:21;;;;;;;8.70;5.83;;;;;;;21.58;63.04;97272.75;8317267;28;20233;-80
2022/09/13 18:04:24;;;;;;;8.70;5.37;;;;;;;21.57;62.65;97272.91;8320407;28;20233;-80
2022/09/13 18:08:28;;;;;;;5.53;4.70;;;;;;;21.59;63.38;97277.06;8320526;28;20246;-82
2022/09/13 18:12:32;;;;;;;6.87;6.17;;;;;;;21.59;62.69;97277.06;8320508;28;20240;-81
2022/09/13 18:16:36;;;;;;;7.47;6.27;;;;;;;21.53;63.51;97285.56;8320685;28;20237;-80
2022/09/13 18:20:39;;;;;;;6.73;5.77;;;;;;;21.50;63.49;97283.25;8320322;28;20248;-81
2022/09/13 18:24:42;;;;;;;6.70;6.00;;;;;;;21.50;63.77;97283.25;8319703;28;20240;-81
2022/09/13 18:28:47;;;;;;;7.00;6.30;;;;;;;21.50;63.87;97280.59;8320082;28;20233;-81
2022/09/13 18:32:51;;;;;;;10.57;6.53;;;;;;;21.48;63.88;97283.38;8319590;28;20476;-82
2022/09/13 18:36:54;;;;;;;9.57;6.40;;;;;;;21.49;64.53;97289.47;8320006;28;20260;-81
2022/09/13 18:41:01;;;;;;;7.20;5.83;;;;;;;21.45;64.50;97280.22;8319885;28;20233;-84
2022/09/13 18:45:04;;;;;;;7.60;6.37;;;;;;;21.40;64.70;97283.31;8319405;28;20233;-81
2022/09/13 18:49:09;;;;;;;11.97;6.10;;;;;;;21.41;64.21;97287.56;8308235;28;20251;-81
2022/09/13 18:53:11;;;;;;;8.67;5.53;;;;;;;21.41;65.21;97294.66;8319379;28;20535;-81
2022/09/13 18:57:14;;;;;;;5.63;5.00;;;;;;;21.41;65.08;97307.81;8319232;28;20283;-80
2022/09/13 19:01:18;;;;;;;8.40;4.70;;;;;;;21.38;66.10;97290.53;8319153;28;20236;-81
2022/09/13 19:05:25;;;;;;;5.80;4.53;;;;;;;21.35;65.25;97300.53;8318894;28;20244;-80
2022/09/13 19:09:28;;;;;;;8.23;5.10;;;;;;;21.33;65.99;97303.31;8318911;28;20240;-78
2022/09/13 19:13:31;;;;;;;6.63;5.30;;;;;;;21.31;66.26;97302.66;8317605;28;20248;-81
2022/09/13 19:17:33;;;;;;;20.80;11.70;;;;;;;21.24;67.00;97297.16;8318881;28;20244;-80